Time;durP1;ratioP1;P1;durP2;ratioP2;P2;SDS_P1;SDS_P2;PMS_P1;PMS_P2;Temp;Humidity;BMP_temperature;BMP_pressure;BME280_temperature;BME280_humidity;BME280_pressure;Samples;Min_cycle;Max_cycle;Signal;HPM_P1;HPM_P2
2023/12/08 00:01:16;;;;;;;;;;;12.30;99.90;;;;;;5076370;28;19916;-79
2023/12/08 00:03:42;;;;;;;;;;;12.20;99.90;;;;;;5075817;28;19916;-79
2023/12/08 00:06:07;;;;;;;;;;;12.20;99.90;;;;;;5074571;28;19916;-79
2023/12/08 00:08:33;;;;;;;;;;;12.10;99.90;;;;;;5075699;28;19912;-79
2023/12/08 00:10:59;;;;;;;;;;;12.10;99.90;;;;;;5075966;28;19921;-79
2023/12/08 00:13:24;;;;;;;;;;;12.00;99.90;;;;;;5075827;28;19997;-76
2023/12/08 00:15:50;;;;;;;;;;;12.00;99.90;;;;;;5075734;28;20043;-79
2023/12/08 00:18:15;;;;;;;;;;;11.90;99.90;;;;;;5077512;28;19919;-79
2023/12/08 00:20:41;;;;;;;;;;;11.90;99.90;;;;;;5086061;28;19913;-79
2023/12/08 00:23:06;;;;;;;;;;;11.80;99.90;;;;;;5075596;28;19931;-79
2023/12/08 00:25:32;;;;;;;;;;;11.80;99.90;;;;;;5084166;28;19912;-79
2023/12/08 00:27:57;;;;;;;;;;;11.90;99.90;;;;;;5080667;28;19909;-79
2023/12/08 00:30:23;;;;;;;;;;;11.90;99.90;;;;;;5074001;28;19958;-79
2023/12/08 00:32:49;;;;;;;;;;;11.90;99.90;;;;;;5075577;28;19962;-78
2023/12/08 00:35:14;;;;;;;;;;;11.90;99.90;;;;;;5070459;28;19912;-79
2023/12/08 00:37:40;;;;;;;;;;;11.80;99.90;;;;;;5061613;28;19913;-79
2023/12/08 00:40:07;;;;;;;;;;;11.80;99.90;;;;;;5075434;28;20003;-76
2023/12/08 00:42:32;;;;;;;;;;;11.80;99.90;;;;;;5075402;28;19909;-76
2023/12/08 00:44:58;;;;;;;;;;;11.70;99.90;;;;;;5075319;28;19909;-79
2023/12/08 00:47:23;;;;;;;;;;;11.80;99.90;;;;;;5075199;28;20268;-79
2023/12/08 00:49:49;;;;;;;;;;;11.80;99.90;;;;;;5075103;28;19916;-79
2023/12/08 00:52:14;;;;;;;;;;;11.70;99.90;;;;;;5074413;28;19916;-79
2023/12/08 00:54:40;;;;;;;;;;;11.80;99.90;;;;;;5074317;28;19974;-79
2023/12/08 00:57:05;;;;;;;;;;;11.70;99.90;;;;;;5074759;28;19909;-79
2023/12/08 00:59:31;;;;;;;;;;;11.60;99.90;;;;;;5075193;28;19935;-76
2023/12/08 01:01:56;;;;;;;;;;;11.70;99.90;;;;;;5074943;28;19912;-79
2023/12/08 01:04:22;;;;;;;;;;;11.60;99.90;;;;;;5074332;28;19991;-76
2023/12/08 01:06:47;;;;;;;;;;;11.70;99.90;;;;;;5074887;28;20372;-78
2023/12/08 01:09:13;;;;;;;;;;;11.60;99.90;;;;;;5074037;28;19915;-78
2023/12/08 01:11:38;;;;;;;;;;;11.60;99.90;;;;;;5074663;28;19920;-79
2023/12/08 01:14:04;;;;;;;;;;;11.50;99.90;;;;;;5074529;28;19917;-79
2023/12/08 01:16:29;;;;;;;;;;;11.50;99.90;;;;;;5074472;28;19958;-78
2023/12/08 01:18:55;;;;;;;;;;;11.50;99.90;;;;;;5078131;28;19913;-76
2023/12/08 01:21:20;;;;;;;;;;;11.50;99.90;;;;;;5083250;28;20071;-79
2023/12/08 01:23:46;;;;;;;;;;;11.50;99.90;;;;;;5074481;28;19908;-78
2023/12/08 01:26:11;;;;;;;;;;;11.50;99.90;;;;;;5119067;27;19916;-79
2023/12/08 01:28:37;;;;;;;;;;;11.50;99.90;;;;;;5074411;28;20371;-79
2023/12/08 01:31:03;;;;;;;;;;;11.50;99.90;;;;;;5074359;28;19912;-76
2023/12/08 01:33:29;;;;;;;;;;;11.40;99.90;;;;;;5074331;28;20297;-79
2023/12/08 01:35:54;;;;;;;;;;;11.40;99.90;;;;;;5073914;28;19958;-79
2023/12/08 01:38:20;;;;;;;;;;;11.40;99.90;;;;;;5072699;28;19958;-78
2023/12/08 01:40:46;;;;;;;;;;;11.40;99.90;;;;;;5074321;28;19919;-79
2023/12/08 01:43:12;;;;;;;;;;;11.40;99.90;;;;;;5073832;28;20405;-78
2023/12/08 01:45:37;;;;;;;;;;;11.40;99.90;;;;;;5074049;28;19913;-78
2023/12/08 01:48:04;;;;;;;;;;;11.40;99.90;;;;;;5074399;28;19919;-78
2023/12/08 01:50:30;;;;;;;;;;;11.40;99.90;;;;;;5073825;28;19966;-78
2023/12/08 01:52:56;;;;;;;;;;;11.30;99.90;;;;;;5073235;28;19908;-78
2023/12/08 01:55:21;;;;;;;;;;;11.30;99.90;;;;;;5073630;28;20390;-78
2023/12/08 01:57:47;;;;;;;;;;;11.20;99.90;;;;;;5073750;28;19909;-78
2023/12/08 02:00:12;;;;;;;;;;;11.20;99.90;;;;;;5073714;28;19908;-78
2023/12/08 02:02:38;;;;;;;;;;;11.20;99.90;;;;;;5073249;28;19915;-78
2023/12/08 02:05:04;;;;;;;;;;;11.20;99.90;;;;;;5073395;28;19919;-78
2023/12/08 02:07:30;;;;;;;;;;;11.10;99.90;;;;;;5073428;28;19995;-78
2023/12/08 02:09:55;;;;;;;;;;;11.10;99.90;;;;;;5073776;28;20046;-78
2023/12/08 02:12:22;;;;;;;;;;;11.10;99.90;;;;;;5073295;28;19964;-76
2023/12/08 02:14:50;;;;;;;;;;;11.00;99.90;;;;;;5073851;28;19920;-78
2023/12/08 02:17:24;;;;;;;;;;;11.00;99.90;;;;;;5073401;28;20363;-78
2023/12/08 02:19:50;;;;;;;;;;;11.00;99.90;;;;;;5083585;28;19912;-78
2023/12/08 02:22:16;;;;;;;;;;;10.90;99.90;;;;;;5075348;28;19909;-78
2023/12/08 02:24:42;;;;;;;;;;;10.90;99.90;;;;;;5076360;28;19912;-78
2023/12/08 02:27:09;;;;;;;;;;;10.90;99.90;;;;;;5086397;28;19926;-78
2023/12/08 02:29:34;;;;;;;;;;;10.80;99.90;;;;;;5093671;28;20000;-78
2023/12/08 02:32:02;;;;;;;;;;;10.70;99.90;;;;;;5093573;28;19943;-78
2023/12/08 02:34:31;;;;;;;;;;;10.70;99.90;;;;;;5089299;28;19913;-76
2023/12/08 02:36:58;;;;;;;;;;;10.60;99.90;;;;;;5073240;28;19908;-76
2023/12/08 02:39:24;;;;;;;;;;;10.60;99.90;;;;;;5073404;28;20007;-78
2023/12/08 02:41:50;;;;;;;;;;;10.60;99.90;;;;;;5073288;28;19999;-78
2023/12/08 02:44:16;;;;;;;;;;;10.50;99.90;;;;;;5073193;28;19948;-78
2023/12/08 02:46:42;;;;;;;;;;;10.50;99.90;;;;;;5073341;28;20295;-78
2023/12/08 02:49:07;;;;;;;;;;;10.40;99.90;;;;;;5072143;28;19908;-78
2023/12/08 02:51:33;;;;;;;;;;;10.40;99.90;;;;;;5073331;28;19932;-76
2023/12/08 02:53:58;;;;;;;;;;;10.40;99.90;;;;;;5073110;28;19920;-78
2023/12/08 02:56:24;;;;;;;;;;;10.30;99.90;;;;;;5073124;28;19912;-78
2023/12/08 02:58:49;;;;;;;;;;;10.20;99.90;;;;;;5071842;28;19999;-78
2023/12/08 03:01:15;;;;;;;;;;;10.30;99.90;;;;;;5073023;28;19908;-78
2023/12/08 03:03:40;;;;;;;;;;;10.30;99.90;;;;;;5071552;28;19912;-76
2023/12/08 03:06:06;;;;;;;;;;;10.30;99.90;;;;;;5072433;28;19908;-78
2023/12/08 03:08:31;;;;;;;;;;;10.20;99.90;;;;;;5105188;28;19924;-76
2023/12/08 03:10:57;;;;;;;;;;;10.30;99.90;;;;;;5072948;28;19971;-78
2023/12/08 03:13:22;;;;;;;;;;;10.30;99.90;;;;;;5071486;28;20406;-78
2023/12/08 03:15:48;;;;;;;;;;;10.30;99.90;;;;;;5076682;28;19912;-78
2023/12/08 03:18:14;;;;;;;;;;;10.30;99.90;;;;;;5077933;28;19917;-78
2023/12/08 03:20:39;;;;;;;;;;;10.30;99.90;;;;;;5087792;28;19967;-78
2023/12/08 03:23:05;;;;;;;;;;;10.30;99.90;;;;;;5076754;28;20001;-78
2023/12/08 03:25:30;;;;;;;;;;;10.30;99.90;;;;;;5083465;28;20294;-76
2023/12/08 03:27:56;;;;;;;;;;;10.20;99.90;;;;;;5081194;28;20275;-76
2023/12/08 03:30:21;;;;;;;;;;;10.20;99.90;;;;;;5075351;28;19963;-76
2023/12/08 03:32:47;;;;;;;;;;;10.20;99.90;;;;;;5076662;28;19908;-78
2023/12/08 03:35:12;;;;;;;;;;;10.20;99.90;;;;;;5076156;28;20301;-78
2023/12/08 03:37:38;;;;;;;;;;;10.20;99.90;;;;;;5076516;28;20265;-78
2023/12/08 03:40:03;;;;;;;;;;;10.20;99.90;;;;;;5076741;28;19912;-77
2023/12/08 03:42:34;;;;;;;;;;;10.10;99.90;;;;;;5076467;28;19960;-78
2023/12/08 03:45:00;;;;;;;;;;;10.10;99.90;;;;;;5075092;28;20334;-78
2023/12/08 03:47:25;;;;;;;;;;;10.10;99.90;;;;;;5076290;28;19909;-78
2023/12/08 03:49:51;;;;;;;;;;;10.10;99.90;;;;;;5076404;28;19912;-78
2023/12/08 03:52:16;;;;;;;;;;;10.10;99.90;;;;;;5076199;28;19908;-78
2023/12/08 03:54:42;;;;;;;;;;;10.10;99.90;;;;;;5076418;28;19919;-78
2023/12/08 03:57:07;;;;;;;;;;;10.10;99.90;;;;;;5076166;28;20001;-77
2023/12/08 03:59:33;;;;;;;;;;;10.20;99.90;;;;;;5075956;28;20286;-78
2023/12/08 04:01:58;;;;;;;;;;;10.20;99.90;;;;;;5076245;28;19908;-78
2023/12/08 04:04:24;;;;;;;;;;;10.20;99.90;;;;;;5075134;28;19909;-78
2023/12/08 04:06:49;;;;;;;;;;;10.20;99.90;;;;;;5076048;28;20011;-76
2023/12/08 04:09:15;;;;;;;;;;;10.20;99.90;;;;;;5074394;28;19908;-78
2023/12/08 04:11:40;;;;;;;;;;;10.10;99.90;;;;;;5075690;28;19920;-78
2023/12/08 04:14:06;;;;;;;;;;;10.10;99.90;;;;;;5075441;28;19921;-77
2023/12/08 04:16:31;;;;;;;;;;;10.20;99.90;;;;;;5075781;28;19917;-78
2023/12/08 04:18:57;;;;;;;;;;;10.30;99.90;;;;;;5078006;28;19916;-77
2023/12/08 04:21:22;;;;;;;;;;;10.50;99.90;;;;;;5084534;28;20008;-75
2023/12/08 04:23:48;;;;;;;;;;;10.70;99.90;;;;;;5075565;28;19974;-79
2023/12/08 04:26:13;;;;;;;;;;;10.60;99.90;;;;;;5086665;28;20449;-79
2023/12/08 04:28:39;;;;;;;;;;;10.50;99.90;;;;;;5055554;28;20400;-79
2023/12/08 04:31:05;;;;;;;;;;;10.40;99.90;;;;;;5055662;28;20283;-78
2023/12/08 04:33:30;;;;;;;;;;;10.40;99.90;;;;;;5070771;28;19909;-77
2023/12/08 04:35:56;;;;;;;;;;;10.40;99.90;;;;;;5071284;28;19954;-77
2023/12/08 04:38:21;;;;;;;;;;;10.40;99.90;;;;;;5075550;28;19939;-78
2023/12/08 04:40:47;;;;;;;;;;;10.50;99.90;;;;;;5075203;28;20401;-78
2023/12/08 04:43:12;;;;;;;;;;;10.50;99.90;;;;;;5075204;28;19909;-77
2023/12/08 04:45:38;;;;;;;;;;;10.50;99.90;;;;;;5075321;28;19962;-76
2023/12/08 04:48:03;;;;;;;;;;;10.40;99.90;;;;;;5074037;28;19912;-77
2023/12/08 04:50:29;;;;;;;;;;;10.30;99.90;;;;;;5073548;28;20015;-77
2023/12/08 04:52:54;;;;;;;;;;;10.20;99.90;;;;;;5075092;28;19915;-77
2023/12/08 04:55:20;;;;;;;;;;;10.20;99.90;;;;;;5075050;28;19912;-77
2023/12/08 04:57:45;;;;;;;;;;;10.10;99.90;;;;;;5074980;28;19932;-77
2023/12/08 05:00:11;;;;;;;;;;;10.00;99.90;;;;;;5074780;28;19919;-77
2023/12/08 05:02:37;;;;;;;;;;;10.10;99.90;;;;;;5075231;28;20029;-76
2023/12/08 05:05:03;;;;;;;;;;;10.10;99.90;;;;;;5072426;28;19913;-79
2023/12/08 05:07:29;;;;;;;;;;;10.30;99.90;;;;;;5070668;28;20374;-78
2023/12/08 05:09:54;;;;;;;;;;;10.50;99.90;;;;;;5076121;28;19955;-79
2023/12/08 05:12:20;;;;;;;;;;;10.50;99.90;;;;;;5055540;28;19932;-79
2023/12/08 05:14:45;;;;;;;;;;;10.20;99.90;;;;;;5070178;28;20375;-76
2023/12/08 05:17:11;;;;;;;;;;;10.20;99.90;;;;;;5082949;28;19927;-79
2023/12/08 05:19:36;;;;;;;;;;;10.20;99.90;;;;;;5078721;28;19916;-78
2023/12/08 05:22:03;;;;;;;;;;;10.20;99.90;;;;;;5074094;28;20447;-78
2023/12/08 05:24:28;;;;;;;;;;;10.20;99.90;;;;;;5072496;28;19923;-77
2023/12/08 05:26:54;;;;;;;;;;;10.20;99.90;;;;;;5078881;28;20291;-76
2023/12/08 05:29:19;;;;;;;;;;;10.10;99.90;;;;;;5069615;28;19924;-77
2023/12/08 05:31:45;;;;;;;;;;;10.00;99.90;;;;;;5070052;28;20001;-76
2023/12/08 05:34:10;;;;;;;;;;;10.00;99.90;;;;;;5069638;28;20294;-77
2023/12/08 05:36:36;;;;;;;;;;;10.00;99.90;;;;;;5069850;28;19913;-77
2023/12/08 05:39:02;;;;;;;;;;;10.00;99.90;;;;;;5069677;28;20384;-76
2023/12/08 05:41:28;;;;;;;;;;;10.00;99.90;;;;;;5069938;28;19948;-77
2023/12/08 05:43:53;;;;;;;;;;;10.00;99.90;;;;;;5069714;28;19952;-76
2023/12/08 05:46:19;;;;;;;;;;;10.00;99.90;;;;;;5069766;28;19909;-76
2023/12/08 05:48:44;;;;;;;;;;;10.00;99.90;;;;;;5069643;28;19959;-76
2023/12/08 05:51:10;;;;;;;;;;;10.00;99.90;;;;;;5069647;28;19989;-76
2023/12/08 05:53:35;;;;;;;;;;;10.10;99.90;;;;;;5067980;28;19916;-76
2023/12/08 05:56:01;;;;;;;;;;;10.20;99.90;;;;;;5068403;28;20496;-76
2023/12/08 05:58:26;;;;;;;;;;;10.30;99.90;;;;;;5068398;28;20422;-76
2023/12/08 06:00:52;;;;;;;;;;;10.40;99.90;;;;;;5068161;28;19921;-76
2023/12/08 06:03:17;;;;;;;;;;;10.40;99.90;;;;;;5069142;28;20242;-76
2023/12/08 06:05:42;;;;;;;;;;;10.50;99.90;;;;;;5067519;28;20321;-76
2023/12/08 06:08:08;;;;;;;;;;;10.50;99.90;;;;;;5067635;28;19974;-75
2023/12/08 06:10:34;;;;;;;;;;;10.70;99.90;;;;;;5069140;28;19977;-75
2023/12/08 06:12:59;;;;;;;;;;;10.70;99.90;;;;;;5070735;28;19913;-75
2023/12/08 06:15:25;;;;;;;;;;;10.80;99.90;;;;;;5074703;28;19924;-76
2023/12/08 06:17:52;;;;;;;;;;;10.90;99.90;;;;;;5078769;28;20138;-75
2023/12/08 06:20:18;;;;;;;;;;;10.90;99.90;;;;;;5080409;28;19916;-75
2023/12/08 06:22:43;;;;;;;;;;;10.80;99.90;;;;;;5093709;28;19908;-75
2023/12/08 06:25:09;;;;;;;;;;;10.70;99.90;;;;;;5085997;28;19908;-76
2023/12/08 06:27:35;;;;;;;;;;;10.70;99.90;;;;;;5084005;28;19916;-76
2023/12/08 06:30:01;;;;;;;;;;;10.70;99.90;;;;;;5083708;28;20015;-75
2023/12/08 06:32:28;;;;;;;;;;;10.70;99.90;;;;;;5072294;28;19962;-75
2023/12/08 06:34:54;;;;;;;;;;;10.70;99.90;;;;;;5072313;28;19920;-76
2023/12/08 06:37:19;;;;;;;;;;;10.60;99.90;;;;;;5073383;28;19996;-75
2023/12/08 06:39:45;;;;;;;;;;;10.50;99.90;;;;;;5071760;28;19995;-75
2023/12/08 06:42:10;;;;;;;;;;;10.50;99.90;;;;;;5073177;28;19908;-75
2023/12/08 06:44:36;;;;;;;;;;;10.40;99.90;;;;;;5073205;28;19912;-75
2023/12/08 06:47:01;;;;;;;;;;;10.40;99.90;;;;;;5076659;28;19912;-75
2023/12/08 06:49:27;;;;;;;;;;;10.40;99.90;;;;;;5083387;28;20302;-76
2023/12/08 06:51:52;;;;;;;;;;;10.30;99.90;;;;;;5072782;28;20371;-75
2023/12/08 06:54:18;;;;;;;;;;;10.40;99.90;;;;;;5072884;28;19919;-75
2023/12/08 06:56:43;;;;;;;;;;;10.30;99.90;;;;;;5070272;28;19924;-75
2023/12/08 06:59:09;;;;;;;;;;;10.20;99.90;;;;;;5084739;28;19912;-75
2023/12/08 07:01:35;;;;;;;;;;;10.20;99.90;;;;;;5080406;28;20023;-76
2023/12/08 07:04:03;;;;;;;;;;;10.10;99.90;;;;;;5068357;28;19956;-75
2023/12/08 07:06:31;;;;;;;;;;;10.10;99.90;;;;;;5071765;28;19912;-75
2023/12/08 07:08:57;;;;;;;;;;;10.10;99.90;;;;;;5082300;28;19909;-75
2023/12/08 07:11:22;;;;;;;;;;;10.20;99.90;;;;;;5075205;28;19930;-75
2023/12/08 07:13:48;;;;;;;;;;;10.20;99.90;;;;;;5074753;28;19963;-75
2023/12/08 07:16:14;;;;;;;;;;;10.30;99.90;;;;;;5070852;28;19916;-75
2023/12/08 07:18:39;;;;;;;;;;;10.30;99.90;;;;;;5079267;28;19915;-75
2023/12/08 07:21:05;;;;;;;;;;;10.20;99.90;;;;;;5078918;28;20011;-76
2023/12/08 07:23:30;;;;;;;;;;;10.20;99.90;;;;;;5072842;28;19909;-75
2023/12/08 07:25:56;;;;;;;;;;;10.10;99.90;;;;;;5080208;28;20330;-75
2023/12/08 07:28:21;;;;;;;;;;;10.10;99.90;;;;;;5081331;28;19913;-76
2023/12/08 07:30:47;;;;;;;;;;;10.20;99.90;;;;;;5074877;28;20313;-76
2023/12/08 07:33:12;;;;;;;;;;;10.30;99.90;;;;;;5072243;28;20447;-77
2023/12/08 07:35:38;;;;;;;;;;;10.30;99.90;;;;;;5077639;28;20260;-76
2023/12/08 07:38:04;;;;;;;;;;;10.20;99.90;;;;;;5076874;28;19920;-77
2023/12/08 07:40:29;;;;;;;;;;;10.10;99.90;;;;;;5071427;28;19915;-76
2023/12/08 07:42:55;;;;;;;;;;;10.10;99.90;;;;;;5071846;28;20065;-77
2023/12/08 07:45:20;;;;;;;;;;;10.00;99.90;;;;;;5072084;28;19908;-76
2023/12/08 07:47:47;;;;;;;;;;;10.10;99.90;;;;;;5071938;28;19920;-77
2023/12/08 07:50:13;;;;;;;;;;;10.10;99.90;;;;;;5071692;28;19991;-77
2023/12/08 07:52:41;;;;;;;;;;;10.10;99.90;;;;;;5105827;28;19912;-77
2023/12/08 07:55:06;;;;;;;;;;;10.10;99.90;;;;;;5072469;28;20464;-77
2023/12/08 07:57:32;;;;;;;;;;;10.00;99.90;;;;;;5069877;28;19995;-77
2023/12/08 07:59:58;;;;;;;;;;;10.00;99.90;;;;;;5068187;28;20019;-77
2023/12/08 08:02:23;;;;;;;;;;;10.00;99.90;;;;;;5074490;28;20353;-77
2023/12/08 08:04:49;;;;;;;;;;;9.90;99.90;;;;;;5073279;28;20011;-77
2023/12/08 08:07:14;;;;;;;;;;;10.00;99.90;;;;;;5074620;28;19919;-77
2023/12/08 08:09:40;;;;;;;;;;;10.20;99.90;;;;;;5073568;28;20531;-77
2023/12/08 08:12:05;;;;;;;;;;;10.50;99.90;;;;;;5073879;28;19928;-76
2023/12/08 08:14:31;;;;;;;;;;;10.70;99.90;;;;;;5074373;28;19924;-77
2023/12/08 08:16:56;;;;;;;;;;;10.80;99.90;;;;;;5073418;28;19965;-77
2023/12/08 08:19:23;;;;;;;;;;;10.70;99.90;;;;;;5074976;28;19917;-77
2023/12/08 08:21:48;;;;;;;;;;;10.80;99.90;;;;;;5074347;28;20004;-76
2023/12/08 08:24:14;;;;;;;;;;;10.80;99.90;;;;;;5075369;28;20015;-77
2023/12/08 08:26:43;;;;;;;;;;;10.80;99.90;;;;;;5082085;28;19919;-77
2023/12/08 08:29:08;;;;;;;;;;;10.80;99.90;;;;;;5081289;28;19981;-77
2023/12/08 08:31:34;;;;;;;;;;;10.90;99.90;;;;;;5076534;28;20395;-77
2023/12/08 08:33:59;;;;;;;;;;;10.90;99.90;;;;;;5073030;28;19928;-77
2023/12/08 08:36:25;;;;;;;;;;;10.80;99.90;;;;;;5070952;28;20353;-77
2023/12/08 08:38:51;;;;;;;;;;;10.80;99.90;;;;;;5074571;28;20000;-77
2023/12/08 08:41:18;;;;;;;;;;;10.60;99.90;;;;;;5074377;28;20051;-77
2023/12/08 08:43:43;;;;;;;;;;;10.60;99.90;;;;;;5072873;28;19919;-77
2023/12/08 08:46:09;;;;;;;;;;;10.60;99.90;;;;;;5075067;28;19917;-77
2023/12/08 08:48:34;;;;;;;;;;;10.60;99.90;;;;;;5073195;28;20007;-77
2023/12/08 08:51:00;;;;;;;;;;;10.60;99.90;;;;;;5073236;28;19931;-77
2023/12/08 08:53:27;;;;;;;;;;;10.80;99.90;;;;;;5073963;28;19935;-77
2023/12/08 08:55:52;;;;;;;;;;;10.90;99.90;;;;;;5073291;28;19924;-78
2023/12/08 08:58:18;;;;;;;;;;;11.10;99.90;;;;;;5074999;28;19912;-78
2023/12/08 09:00:45;;;;;;;;;;;11.20;99.90;;;;;;5077511;28;19912;-77
2023/12/08 09:03:10;;;;;;;;;;;11.40;99.90;;;;;;5072578;28;19919;-78
2023/12/08 09:05:40;;;;;;;;;;;11.50;99.90;;;;;;5084507;28;19917;-78
2023/12/08 09:08:07;;;;;;;;;;;11.50;99.90;;;;;;5082712;28;19913;-78
2023/12/08 09:10:32;;;;;;;;;;;11.50;99.90;;;;;;5076079;28;19964;-78
2023/12/08 09:12:58;;;;;;;;;;;11.60;99.90;;;;;;5076879;28;19960;-78
2023/12/08 09:15:23;;;;;;;;;;;11.60;99.90;;;;;;5083578;28;19920;-78
2023/12/08 09:17:49;;;;;;;;;;;11.70;99.90;;;;;;5072955;28;20007;-77
2023/12/08 09:20:14;;;;;;;;;;;11.80;99.90;;;;;;5073621;28;19913;-77
2023/12/08 09:22:41;;;;;;;;;;;11.60;99.90;;;;;;5075896;28;19916;-77
2023/12/08 09:25:07;;;;;;;;;;;11.60;99.90;;;;;;5085920;28;20383;-77
2023/12/08 09:27:32;;;;;;;;;;;11.70;99.90;;;;;;5077419;28;19921;-78
2023/12/08 09:29:58;;;;;;;;;;;11.80;99.90;;;;;;5073416;28;19912;-78
2023/12/08 09:32:23;;;;;;;;;;;11.70;99.90;;;;;;5062907;28;19927;-77
2023/12/08 09:34:48;;;;;;;;;;;11.70;99.90;;;;;;5062658;28;19925;-77
2023/12/08 09:37:14;;;;;;;;;;;11.60;99.90;;;;;;5083355;28;19923;-78
2023/12/08 09:39:39;;;;;;;;;;;11.60;99.90;;;;;;5070908;28;20333;-78
2023/12/08 09:42:12;;;;;;;;;;;11.40;99.90;;;;;;5073935;28;19908;-78
2023/12/08 09:44:38;;;;;;;;;;;11.40;99.90;;;;;;5080290;28;19913;-77
2023/12/08 09:47:04;;;;;;;;;;;11.40;99.90;;;;;;5085105;28;19925;-77
2023/12/08 09:49:30;;;;;;;;;;;11.60;99.90;;;;;;5091318;28;19912;-78
2023/12/08 09:51:56;;;;;;;;;;;11.70;99.90;;;;;;5080233;28;19908;-78
2023/12/08 09:54:22;;;;;;;;;;;11.80;99.90;;;;;;5073081;28;19931;-78
2023/12/08 09:56:50;;;;;;;;;;;11.90;99.90;;;;;;5071774;28;20383;-77
2023/12/08 09:59:16;;;;;;;;;;;12.00;99.90;;;;;;5072638;28;19920;-77
2023/12/08 10:01:42;;;;;;;;;;;12.10;99.90;;;;;;5074449;28;19916;-77
2023/12/08 10:04:07;;;;;;;;;;;12.10;99.90;;;;;;5068529;28;20523;-78
2023/12/08 10:06:33;;;;;;;;;;;12.20;99.90;;;;;;5076635;28;19992;-79
2023/12/08 10:09:00;;;;;;;;;;;12.30;99.90;;;;;;5085230;28;19913;-80
2023/12/08 10:11:25;;;;;;;;;;;12.30;99.90;;;;;;5071440;28;19974;-77
2023/12/08 10:13:51;;;;;;;;;;;12.40;99.90;;;;;;5076899;28;20353;-77
2023/12/08 10:16:17;;;;;;;;;;;12.50;99.90;;;;;;5072631;28;19913;-81
2023/12/08 10:18:42;;;;;;;;;;;12.60;99.90;;;;;;5072048;28;19913;-80
2023/12/08 10:21:12;;;;;;;;;;;12.70;99.90;;;;;;5070693;28;20298;-79
2023/12/08 10:23:38;;;;;;;;;;;12.70;99.90;;;;;;5082254;28;19962;-79
2023/12/08 10:26:04;;;;;;;;;;;12.80;99.90;;;;;;5080962;28;19920;-79
2023/12/08 10:28:33;;;;;;;;;;;12.80;99.90;;;;;;5077598;28;19916;-81
2023/12/08 10:30:58;;;;;;;;;;;12.80;99.90;;;;;;5071736;28;19958;-81
2023/12/08 10:33:25;;;;;;;;;;;12.70;99.90;;;;;;5073544;28;19916;-81
2023/12/08 10:35:51;;;;;;;;;;;12.80;99.90;;;;;;5085138;28;19912;-79
2023/12/08 10:38:17;;;;;;;;;;;12.80;99.90;;;;;;5077300;28;19915;-79
2023/12/08 10:40:50;;;;;;;;;;;12.60;99.90;;;;;;5082365;28;19920;-81
2023/12/08 10:43:22;;;;;;;;;;;12.40;99.90;;;;;;5076507;28;20371;-81
2023/12/08 10:45:54;;;;;;;;;;;12.40;99.90;;;;;;5104787;28;19913;-81
2023/12/08 10:48:23;;;;;;;;;;;12.40;99.90;;;;;;5072685;28;20006;-81
2023/12/08 10:50:49;;;;;;;;;;;12.60;99.90;;;;;;5090625;27;19916;-79
2023/12/08 10:53:18;;;;;;;;;;;13.10;99.90;;;;;;5058074;28;19974;-79
2023/12/08 10:55:46;;;;;;;;;;;13.30;99.90;;;;;;5104097;28;19923;-82
2023/12/08 10:58:14;;;;;;;;;;;13.20;99.90;;;;;;5070072;28;20367;-81
2023/12/08 11:00:41;;;;;;;;;;;12.90;99.90;;;;;;5065174;28;20372;-82
2023/12/08 11:03:09;;;;;;;;;;;12.80;99.90;;;;;;5073512;28;19988;-79
2023/12/08 11:05:48;;;;;;;;;;;12.70;99.90;;;;;;5090889;28;19908;-79
2023/12/08 11:08:16;;;;;;;;;;;12.60;99.90;;;;;;5076339;28;20032;-79
2023/12/08 11:10:43;;;;;;;;;;;12.50;99.90;;;;;;5078336;28;20295;-78
2023/12/08 11:13:13;;;;;;;;;;;12.40;99.90;;;;;;5071913;28;19916;-78
2023/12/08 11:15:42;;;;;;;;;;;12.40;99.90;;;;;;5072153;28;19916;-78
2023/12/08 11:18:15;;;;;;;;;;;12.40;99.90;;;;;;5070677;28;19909;-79
2023/12/08 11:20:41;;;;;;;;;;;12.50;99.90;;;;;;5071807;28;19916;-78
2023/12/08 11:23:07;;;;;;;;;;;12.40;99.90;;;;;;5073408;28;19912;-78
2023/12/08 11:25:38;;;;;;;;;;;12.40;99.90;;;;;;5079934;28;20393;-83
2023/12/08 11:28:09;;;;;;;;;;;12.50;99.90;;;;;;5073765;28;20062;-79
2023/12/08 11:30:51;;;;;;;;;;;12.50;99.90;;;;;;5074641;28;19919;-78
2023/12/08 11:33:49;;;;;;;;;;;12.60;99.90;;;;;;5069101;28;19916;-82
2023/12/08 11:36:18;;;;;;;;;;;12.50;99.90;;;;;;5021423;28;19923;-82
2023/12/08 11:38:43;;;;;;;;;;;12.50;99.90;;;;;;5081577;28;19920;-79
2023/12/08 11:41:15;;;;;;;;;;;12.70;99.90;;;;;;5095877;28;19915;-78
2023/12/08 11:43:42;;;;;;;;;;;12.90;99.90;;;;;;5089727;28;19992;-78
2023/12/08 11:46:07;;;;;;;;;;;13.10;99.90;;;;;;5076038;28;20335;-83
2023/12/08 11:48:33;;;;;;;;;;;13.50;99.90;;;;;;5080842;28;19916;-79
2023/12/08 11:51:00;;;;;;;;;;;13.90;99.90;;;;;;5077802;28;19952;-83
2023/12/08 11:53:26;;;;;;;;;;;14.20;99.90;;;;;;5079385;28;19934;-83
2023/12/08 11:55:52;;;;;;;;;;;14.40;99.90;;;;;;5079091;28;19990;-79
2023/12/08 11:58:19;;;;;;;;;;;14.50;99.90;;;;;;5075897;28;19908;-83
2023/12/08 12:00:46;;;;;;;;;;;14.60;99.90;;;;;;5079421;28;19912;-83
2023/12/08 12:03:11;;;;;;;;;;;14.20;99.90;;;;;;5091105;28;19958;-78
2023/12/08 12:05:38;;;;;;;;;;;14.20;99.90;;;;;;5091116;28;20014;-79
2023/12/08 12:08:04;;;;;;;;;;;14.20;99.90;;;;;;5079556;28;19913;-78
2023/12/08 12:10:33;;;;;;;;;;;14.00;99.90;;;;;;5088502;28;19962;-78
2023/12/08 12:13:07;;;;;;;;;;;14.10;99.90;;;;;;5084778;28;20367;-79
2023/12/08 12:15:33;;;;;;;;;;;14.20;99.90;;;;;;5075341;28;19967;-78
2023/12/08 12:18:00;;;;;;;;;;;14.20;99.90;;;;;;5108128;28;19908;-83
2023/12/08 12:20:31;;;;;;;;;;;14.30;99.90;;;;;;5082307;28;20395;-78
2023/12/08 12:22:58;;;;;;;;;;;14.40;99.90;;;;;;5074660;28;19940;-78
2023/12/08 12:25:24;;;;;;;;;;;14.50;99.90;;;;;;5082491;28;19920;-79
2023/12/08 12:27:52;;;;;;;;;;;14.60;99.90;;;;;;5087766;28;19961;-83
2023/12/08 12:30:17;;;;;;;;;;;14.60;99.90;;;;;;5077973;28;20379;-82
2023/12/08 12:32:44;;;;;;;;;;;14.50;99.90;;;;;;5087369;28;20060;-78
2023/12/08 12:35:10;;;;;;;;;;;14.30;99.90;;;;;;5081940;28;19970;-79
2023/12/08 12:37:36;;;;;;;;;;;14.40;99.90;;;;;;5075131;28;19971;-79
2023/12/08 12:40:06;;;;;;;;;;;14.60;99.90;;;;;;5075352;28;20391;-82
2023/12/08 12:42:42;;;;;;;;;;;14.70;99.90;;;;;;5085061;28;20405;-83
2023/12/08 12:45:08;;;;;;;;;;;14.70;99.90;;;;;;5080516;28;20379;-83
2023/12/08 12:47:34;;;;;;;;;;;14.70;99.90;;;;;;5075724;28;19919;-79
2023/12/08 12:50:00;;;;;;;;;;;14.80;99.90;;;;;;5081179;28;19916;-83
2023/12/08 12:52:26;;;;;;;;;;;14.70;99.90;;;;;;5085911;28;19908;-79
2023/12/08 12:54:52;;;;;;;;;;;14.80;99.90;;;;;;5082559;28;19921;-79
2023/12/08 12:57:38;;;;;;;;;;;14.50;99.90;;;;;;5074762;28;19916;-79
2023/12/08 13:00:04;;;;;;;;;;;14.20;99.90;;;;;;5073386;28;19923;-78
2023/12/08 13:02:29;;;;;;;;;;;14.10;99.90;;;;;;5107487;28;19908;-79
2023/12/08 13:04:55;;;;;;;;;;;14.30;99.90;;;;;;5075977;28;19916;-78
2023/12/08 13:07:21;;;;;;;;;;;14.20;99.90;;;;;;5076630;28;19912;-84
2023/12/08 13:09:47;;;;;;;;;;;13.90;99.90;;;;;;5081108;28;19908;-83
2023/12/08 13:12:12;;;;;;;;;;;13.80;99.90;;;;;;5074359;28;20437;-79
2023/12/08 13:14:38;;;;;;;;;;;13.80;99.90;;;;;;5074034;28;20456;-78
2023/12/08 13:17:05;;;;;;;;;;;13.90;99.90;;;;;;5074088;28;19966;-79
2023/12/08 13:19:31;;;;;;;;;;;14.10;99.90;;;;;;5075253;28;19995;-84
2023/12/08 13:21:58;;;;;;;;;;;14.30;99.90;;;;;;5094520;28;19970;-78
2023/12/08 13:24:24;;;;;;;;;;;14.70;99.90;;;;;;5091168;28;19913;-84
2023/12/08 13:26:49;;;;;;;;;;;15.20;99.90;;;;;;5080705;28;19919;-79
2023/12/08 13:29:15;;;;;;;;;;;15.00;99.90;;;;;;5093262;28;19947;-80
2023/12/08 13:31:41;;;;;;;;;;;15.20;99.90;;;;;;5072823;28;20003;-86
2023/12/08 13:34:06;;;;;;;;;;;15.20;99.90;;;;;;5077330;28;20443;-78
2023/12/08 13:36:32;;;;;;;;;;;14.40;99.90;;;;;;5089556;28;19916;-83
2023/12/08 13:38:57;;;;;;;;;;;13.80;99.90;;;;;;5087349;28;19912;-78
2023/12/08 13:41:23;;;;;;;;;;;13.40;99.90;;;;;;5089165;28;19918;-78
2023/12/08 13:43:48;;;;;;;;;;;13.20;99.90;;;;;;5093368;28;19908;-79
2023/12/08 13:46:14;;;;;;;;;;;13.00;99.90;;;;;;5087288;28;20294;-77
2023/12/08 13:48:40;;;;;;;;;;;13.20;99.90;;;;;;5082463;28;19908;-85
2023/12/08 13:51:05;;;;;;;;;;;13.60;99.90;;;;;;5077065;28;19918;-79
2023/12/08 13:53:31;;;;;;;;;;;13.80;99.90;;;;;;5073392;28;19912;-78
2023/12/08 13:55:56;;;;;;;;;;;13.90;99.90;;;;;;5083540;28;20291;-79
2023/12/08 13:58:22;;;;;;;;;;;14.00;99.90;;;;;;5072347;28;19969;-84
2023/12/08 14:00:47;;;;;;;;;;;14.10;99.90;;;;;;5077987;28;19913;-83
2023/12/08 14:03:13;;;;;;;;;;;14.00;99.90;;;;;;5073871;28;19966;-84
2023/12/08 14:05:38;;;;;;;;;;;13.80;99.90;;;;;;5087038;28;19951;-78
2023/12/08 14:08:04;;;;;;;;;;;13.90;99.90;;;;;;5075851;28;19916;-76
2023/12/08 14:10:29;;;;;;;;;;;14.00;99.90;;;;;;5085680;28;19928;-77